Yarmouth, Canada
Current Conditions -  °F | °C
As of 4:00 PM on Saturday 20 Dec 2014 (Local Time) from CYQI Reporting Station
Broken Clouds Broken Clouds  
Wind Chill: 26°   Ceiling: 1500
Heat Index: 34°   Visibility: 15mi
Dew Point: 28°   Wind: 9mph
Humidity: 81%   Direction: 30°NNE
Pressure: 30.24"   Gusts: NA
Location:  43.84°N, 66.12°W
Report Text: CYQI 202000Z 03008KT 15SM BKN015 01/M02 A3024 RMK SC7 SLP242
Loading
Personal Weather Stations






























Interactive Weather Map New forecast layout! Learn more

10-Day Weather Forecast

Advertisements
Track Severe Weather on mobile